Time,TemperatureF,DewpointF,PressureIn,WindDirection,WindDirectionDegrees,WindSpeedMPH,WindSpeedGustMPH,Humidity,HourlyPrecipIn,Conditions,Clouds,dailyrainin,SolarRadiationWatts/m^2,SoftwareType,DateUTC
2013-02-21 00:00:00,55.0,38.0,-100.00,ESE,119,8.0,14.0,52,0.00,,,0.04,0.000000,,2013-02-21 06:00:00,
2013-02-21 00:21:00,55.0,39.0,-100.00,ESE,115,9.0,16.0,54,0.00,,,-99.99,0.000000,,2013-02-21 06:21:00,
2013-02-21 00:31:00,55.0,39.0,-100.00,ESE,115,9.0,16.0,54,0.00,,,-99.99,0.000000,,2013-02-21 06:31:00,
2013-02-21 00:41:00,55.0,39.0,-100.00,ESE,115,9.0,16.0,54,0.00,,,-99.99,0.000000,,2013-02-21 06:41:00,
2013-02-21 00:51:00,55.0,39.0,-100.00,ESE,115,9.0,16.0,54,0.00,,,-99.99,0.000000,,2013-02-21 06:51:00,
2013-02-21 01:01:00,55.0,39.0,-100.00,ESE,115,9.0,16.0,54,0.00,,,-99.99,0.000000,,2013-02-21 07:01:00,
2013-02-21 01:21:00,55.0,41.0,-100.00,ESE,121,10.0,19.0,59,0.00,,,0.04,0.000000,,2013-02-21 07:21:00,
2013-02-21 01:32:00,55.0,41.0,-100.00,ESE,121,10.0,19.0,59,0.00,,,0.04,0.000000,,2013-02-21 07:32:00,
2013-02-21 01:42:00,55.0,41.0,-100.00,ESE,121,10.0,19.0,59,0.00,,,0.04,0.000000,,2013-02-21 07:42:00,
2013-02-21 01:52:00,55.0,41.0,-100.00,ESE,121,10.0,19.0,59,0.00,,,0.04,0.000000,,2013-02-21 07:52:00,
2013-02-21 02:01:00,55.0,41.0,-100.00,ESE,121,10.0,19.0,59,0.00,,,0.04,0.000000,,2013-02-21 08:01:00,
2013-02-21 02:21:00,55.0,43.0,-100.00,SE,124,8.0,15.0,64,0.00,,,0.04,0.000000,,2013-02-21 08:21:00,
2013-02-21 02:32:00,55.0,43.0,-100.00,SE,124,8.0,15.0,64,0.00,,,0.04,0.000000,,2013-02-21 08:32:00,
2013-02-21 02:42:00,55.0,43.0,-100.00,SE,124,8.0,15.0,64,0.00,,,0.04,0.000000,,2013-02-21 08:42:00,
2013-02-21 02:52:00,55.0,43.0,-100.00,SE,124,8.0,15.0,64,0.00,,,0.04,0.000000,,2013-02-21 08:52:00,
2013-02-21 03:01:00,55.0,43.0,-100.00,SE,124,8.0,15.0,64,0.00,,,0.04,0.000000,,2013-02-21 09:01:00,
2013-02-21 03:32:00,55.0,45.0,-100.00,SE,124,9.0,17.0,69,0.00,,,0.04,0.000000,,2013-02-21 09:32:00,
2013-02-21 03:42:00,55.0,45.0,-100.00,SE,124,9.0,17.0,69,0.00,,,0.04,0.000000,,2013-02-21 09:42:00,
2013-02-21 03:52:00,55.0,45.0,-100.00,SE,124,9.0,17.0,69,0.00,,,0.04,0.000000,,2013-02-21 09:52:00,
2013-02-21 04:01:00,55.0,45.0,-100.00,SE,124,9.0,17.0,69,0.00,,,0.04,0.000000,,2013-02-21 10:01:00,
2013-02-21 04:31:00,54.0,48.0,-100.00,ESE,118,7.0,15.0,80,0.00,,,0.04,0.000000,,2013-02-21 10:31:00,
2013-02-21 04:41:00,54.0,48.0,-100.00,ESE,118,7.0,15.0,80,0.00,,,0.04,0.000000,,2013-02-21 10:41:00,
2013-02-21 04:51:00,54.0,48.0,-100.00,ESE,118,7.0,15.0,80,0.00,,,0.04,0.000000,,2013-02-21 10:51:00,
2013-02-21 05:01:00,54.0,48.0,-100.00,ESE,118,7.0,15.0,80,0.00,,,0.04,0.000000,,2013-02-21 11:01:00,
2013-02-21 05:31:00,55.0,50.0,-100.00,ESE,123,9.0,15.0,84,0.00,,,0.04,0.000000,,2013-02-21 11:31:00,
2013-02-21 05:41:00,55.0,50.0,-100.00,ESE,123,9.0,15.0,84,0.00,,,0.04,0.000000,,2013-02-21 11:41:00,
2013-02-21 05:52:00,55.0,50.0,-100.00,ESE,123,9.0,15.0,84,0.00,,,0.04,0.000000,,2013-02-21 11:52:00,
2013-02-21 06:01:00,55.0,50.0,-100.00,ESE,123,9.0,15.0,84,0.00,,,0.04,0.000000,,2013-02-21 12:01:00,
2013-02-21 06:32:00,56.0,52.0,-100.00,SE,130,8.0,19.0,86,0.00,,,0.04,0.000000,,2013-02-21 12:32:00,
2013-02-21 06:43:00,56.0,52.0,-100.00,SE,130,8.0,19.0,86,0.00,,,0.04,0.000000,,2013-02-21 12:43:00,
2013-02-21 06:53:00,56.0,52.0,-100.00,SE,130,8.0,19.0,86,0.00,,,0.04,0.000000,,2013-02-21 12:53:00,
2013-02-21 07:01:00,56.0,52.0,-100.00,SE,130,8.0,19.0,86,0.00,,,0.04,0.000000,,2013-02-21 13:01:00,
2013-02-21 07:22:00,56.0,54.0,-100.00,SE,135,8.0,13.0,93,0.01,,,0.05,0.000000,,2013-02-21 13:22:00,
2013-02-21 07:32:00,56.0,54.0,-100.00,SE,135,8.0,13.0,93,0.01,,,0.05,0.000000,,2013-02-21 13:32:00,
2013-02-21 07:42:00,56.0,54.0,-100.00,SE,135,8.0,13.0,93,0.01,,,0.05,0.000000,,2013-02-21 13:42:00,
2013-02-21 07:52:00,56.0,54.0,-100.00,SE,135,8.0,13.0,93,0.01,,,0.05,0.000000,,2013-02-21 13:52:00,
2013-02-21 08:02:00,56.0,54.0,-100.00,SE,135,8.0,13.0,93,0.01,,,0.05,0.000000,,2013-02-21 14:02:00,
2013-02-21 08:32:00,57.0,56.0,-100.00,SE,137,11.0,19.0,96,0.07,,,0.08,7.000000,,2013-02-21 14:32:00,
2013-02-21 08:42:00,57.0,56.0,-100.00,SE,137,11.0,19.0,96,0.07,,,0.08,7.000000,,2013-02-21 14:42:00,
2013-02-21 08:52:00,57.0,56.0,-100.00,SE,137,11.0,19.0,96,0.07,,,0.08,7.000000,,2013-02-21 14:52:00,
2013-02-21 09:01:00,57.0,56.0,-100.00,SE,137,11.0,19.0,96,0.07,,,0.08,7.000000,,2013-02-21 15:01:00,
2013-02-21 09:32:00,58.0,57.0,-100.00,SSE,148,5.0,18.0,97,0.00,,,0.08,16.000000,,2013-02-21 15:32:00,
2013-02-21 09:42:00,58.0,57.0,-100.00,SSE,148,5.0,18.0,97,0.00,,,0.08,16.000000,,2013-02-21 15:42:00,
2013-02-21 09:52:00,58.0,57.0,-100.00,SSE,148,5.0,18.0,97,0.00,,,0.08,16.000000,,2013-02-21 15:52:00,
2013-02-21 10:01:00,58.0,57.0,-100.00,SSE,148,5.0,18.0,97,0.00,,,0.08,16.000000,,2013-02-21 16:01:00,
2013-02-21 10:32:00,59.0,58.0,-100.00,SE,136,5.0,9.0,98,0.07,,,0.15,23.000000,,2013-02-21 16:32:00,
2013-02-21 10:42:00,59.0,58.0,-100.00,SE,136,5.0,9.0,98,0.07,,,0.15,23.000000,,2013-02-21 16:42:00,
2013-02-21 10:52:00,59.0,58.0,-100.00,SE,136,5.0,9.0,98,0.07,,,0.15,23.000000,,2013-02-21 16:52:00,
2013-02-21 11:01:00,59.0,58.0,-100.00,SE,136,5.0,9.0,98,0.07,,,0.15,23.000000,,2013-02-21 17:01:00,
2013-02-21 11:32:00,67.0,66.0,-100.00,SSE,157,6.0,14.0,97,0.02,,,0.17,181.000000,,2013-02-21 17:32:00,
2013-02-21 11:42:00,67.0,66.0,-100.00,SSE,157,6.0,14.0,97,0.02,,,0.17,181.000000,,2013-02-21 17:42:00,
2013-02-21 11:52:00,67.0,66.0,-100.00,SSE,157,6.0,14.0,97,0.02,,,0.17,181.000000,,2013-02-21 17:52:00,
2013-02-21 12:02:00,67.0,66.0,-100.00,SSE,157,6.0,14.0,97,0.02,,,0.17,181.000000,,2013-02-21 18:02:00,
2013-02-21 12:32:00,69.0,68.0,-100.00,SSW,199,5.0,10.0,95,0.04,,,0.21,114.000000,,2013-02-21 18:32:00,
2013-02-21 12:42:00,69.0,68.0,-100.00,SSW,199,5.0,10.0,95,0.04,,,0.21,114.000000,,2013-02-21 18:42:00,
2013-02-21 12:52:00,69.0,68.0,-100.00,SSW,199,5.0,10.0,95,0.04,,,0.21,114.000000,,2013-02-21 18:52:00,
2013-02-21 13:01:00,69.0,68.0,-100.00,SSW,199,5.0,10.0,95,0.04,,,0.21,114.000000,,2013-02-21 19:01:00,
2013-02-21 13:22:00,70.0,65.0,-100.00,NW,305,7.0,15.0,84,0.13,,,0.34,592.000000,,2013-02-21 19:22:00,
2013-02-21 13:32:00,70.0,65.0,-100.00,NW,305,7.0,15.0,84,0.13,,,0.34,592.000000,,2013-02-21 19:32:00,
2013-02-21 13:42:00,70.0,65.0,-100.00,NW,305,7.0,15.0,84,0.13,,,0.34,592.000000,,2013-02-21 19:42:00,
2013-02-21 13:52:00,70.0,65.0,-100.00,NW,305,7.0,15.0,84,0.13,,,0.34,592.000000,,2013-02-21 19:52:00,
2013-02-21 14:01:00,70.0,65.0,-100.00,NW,305,7.0,15.0,84,0.13,,,0.34,592.000000,,2013-02-21 20:01:00,
2013-02-21 14:32:00,73.0,56.0,-100.00,WNW,283,6.0,17.0,56,0.01,,,0.35,810.000000,,2013-02-21 20:32:00,
2013-02-21 14:42:00,73.0,56.0,-100.00,WNW,283,6.0,17.0,56,0.01,,,0.35,810.000000,,2013-02-21 20:42:00,
2013-02-21 14:53:00,73.0,56.0,-100.00,WNW,283,6.0,17.0,56,0.01,,,0.35,810.000000,,2013-02-21 20:53:00,
2013-02-21 15:02:00,73.0,56.0,-100.00,WNW,283,6.0,17.0,56,0.01,,,0.35,810.000000,,2013-02-21 21:02:00,
2013-02-21 15:32:00,74.0,49.0,-100.00,WNW,302,10.0,17.0,42,0.00,,,0.35,711.000000,,2013-02-21 21:32:00,
2013-02-21 15:42:00,74.0,49.0,-100.00,WNW,302,10.0,17.0,42,0.00,,,0.35,711.000000,,2013-02-21 21:42:00,
2013-02-21 15:52:00,74.0,49.0,-100.00,WNW,302,10.0,17.0,42,0.00,,,0.35,711.000000,,2013-02-21 21:52:00,
2013-02-21 16:01:00,74.0,49.0,-100.00,WNW,302,10.0,17.0,42,0.00,,,0.35,711.000000,,2013-02-21 22:01:00,
2013-02-21 16:22:00,73.0,45.0,-100.00,WNW,288,5.0,18.0,37,0.00,,,0.35,546.000000,,2013-02-21 22:22:00,
2013-02-21 16:32:00,73.0,45.0,-100.00,WNW,288,5.0,18.0,37,0.00,,,0.35,546.000000,,2013-02-21 22:32:00,
2013-02-21 16:42:00,73.0,45.0,-100.00,WNW,288,5.0,18.0,37,0.00,,,0.35,546.000000,,2013-02-21 22:42:00,
2013-02-21 16:52:00,73.0,45.0,-100.00,WNW,288,5.0,18.0,37,0.00,,,0.35,546.000000,,2013-02-21 22:52:00,
2013-02-21 17:01:00,73.0,45.0,-100.00,WNW,288,5.0,18.0,37,0.00,,,0.35,546.000000,,2013-02-21 23:01:00,
2013-02-21 17:32:00,70.0,43.0,-100.00,WNW,284,4.0,10.0,38,0.00,,,0.35,190.000000,,2013-02-21 23:32:00,
2013-02-21 17:42:00,70.0,43.0,-100.00,WNW,284,4.0,10.0,38,0.00,,,0.35,190.000000,,2013-02-21 23:42:00,
2013-02-21 17:52:00,70.0,43.0,-100.00,WNW,284,4.0,10.0,38,0.00,,,0.35,190.000000,,2013-02-21 23:52:00,
2013-02-21 18:01:00,70.0,43.0,-100.00,WNW,284,4.0,10.0,38,0.00,,,0.35,190.000000,,2013-02-22 00:01:00,
2013-02-21 18:32:00,66.0,42.0,-100.00,West,265,2.0,7.0,41,0.00,,,0.35,46.000000,,2013-02-22 00:32:00,
2013-02-21 18:42:00,66.0,42.0,-100.00,West,265,2.0,7.0,41,0.00,,,0.35,46.000000,,2013-02-22 00:42:00,
2013-02-21 18:52:00,66.0,42.0,-100.00,West,265,2.0,7.0,41,0.00,,,0.35,46.000000,,2013-02-22 00:52:00,
2013-02-21 19:01:00,66.0,42.0,-100.00,West,265,2.0,7.0,41,0.00,,,0.35,46.000000,,2013-02-22 01:01:00,
2013-02-21 19:32:00,59.0,47.0,-100.00,SW,234,0.0,3.0,65,0.00,,,0.35,2.000000,,2013-02-22 01:32:00,
2013-02-21 19:42:00,59.0,47.0,-100.00,SW,234,0.0,3.0,65,0.00,,,0.35,2.000000,,2013-02-22 01:42:00,
2013-02-21 19:52:00,59.0,47.0,-100.00,SW,234,0.0,3.0,65,0.00,,,0.35,2.000000,,2013-02-22 01:52:00,
2013-02-21 20:02:00,59.0,47.0,-100.00,SW,234,0.0,3.0,65,0.00,,,0.35,2.000000,,2013-02-22 02:02:00,
2013-02-21 20:32:00,55.0,47.0,-100.00,WNW,292,0.0,0.0,75,0.00,,,0.35,0.000000,,2013-02-22 02:32:00,
2013-02-21 20:42:00,55.0,47.0,-100.00,WNW,292,0.0,0.0,75,0.00,,,0.35,0.000000,,2013-02-22 02:42:00,
2013-02-21 20:52:00,55.0,47.0,-100.00,WNW,292,0.0,0.0,75,0.00,,,0.35,0.000000,,2013-02-22 02:52:00,
2013-02-21 21:01:00,55.0,47.0,-100.00,WNW,292,0.0,0.0,75,0.00,,,0.35,0.000000,,2013-02-22 03:01:00,
2013-02-21 21:32:00,52.0,49.0,-100.00,SE,139,0.0,0.0,88,0.00,,,0.35,0.000000,,2013-02-22 03:32:00,
2013-02-21 21:42:00,52.0,49.0,-100.00,SE,139,0.0,0.0,88,0.00,,,0.35,0.000000,,2013-02-22 03:42:00,
2013-02-21 21:52:00,52.0,49.0,-100.00,SE,139,0.0,0.0,88,0.00,,,0.35,0.000000,,2013-02-22 03:52:00,
2013-02-21 22:01:00,52.0,49.0,-100.00,SE,139,0.0,0.0,88,0.00,,,0.35,0.000000,,2013-02-22 04:01:00,
2013-02-21 22:32:00,50.0,48.0,-100.00,North,3,0.0,0.0,92,0.00,,,0.35,0.000000,,2013-02-22 04:32:00,
2013-02-21 22:42:00,50.0,48.0,-100.00,North,3,0.0,0.0,92,0.00,,,0.35,0.000000,,2013-02-22 04:42:00,
2013-02-21 22:52:00,50.0,48.0,-100.00,North,3,0.0,0.0,92,0.00,,,0.35,0.000000,,2013-02-22 04:52:00,
2013-02-21 23:01:00,50.0,48.0,-100.00,North,3,0.0,0.0,92,0.00,,,0.35,0.000000,,2013-02-22 05:01:00,
2013-02-21 23:22:00,49.0,47.0,-100.00,WSW,238,0.0,0.0,94,0.00,,,0.35,0.000000,,2013-02-22 05:22:00,
2013-02-21 23:32:00,49.0,47.0,-100.00,WSW,238,0.0,0.0,94,0.00,,,0.35,0.000000,,2013-02-22 05:32:00,
2013-02-21 23:42:00,49.0,47.0,-100.00,WSW,238,0.0,0.0,94,0.00,,,0.35,0.000000,,2013-02-22 05:42:00,
2013-02-21 23:52:00,49.0,47.0,-100.00,WSW,238,0.0,0.0,94,0.00,,,0.35,0.000000,,2013-02-22 05:52:00,